TRA5753 EHAM-GMMX
Flight info
| Callsign | TRA5753 |
|---|---|
| Flight time | 3h 38m |
| Altitude | 37000 |
| Route | WOODY N872 CIV/N0456F330 N872 MEDIL DCT KOVIN DCT DUCRA UM728 RESMI UN857 DISAK DCT ARKIP DCT ARNAV DCT LMG DCT UVELI DCT OSMOB DCT ARVID T424 PPN N10 PINAR/N0461F350 N10 CJN L27 BLN N869 GALTO UN869 SLK UZ801 VALBA UG850 OBOGA |
| Aircraft | B738/M-SDE2E3FGHIRWXY/LB1 |
Departure
| Time | 2026-05-05 01:44 |
|---|---|
| Airport | Amsterdam Airport Schiphol (EHAM) |
Arrival
| Time | 2026-05-05 05:22 |
|---|---|
| Airport | Marrakesh Menara Airport (GMMX) |
| Time | Latitude | Longitude | Altitude | Speed | Heading |
|---|---|---|---|---|---|
| 2026-05-05 01:19 | 52.31353 | 4.75591 | -2 ft | 0 kts | 86° |
| 2026-05-05 01:30 | 52.31352 | 4.75564 | -2 ft | 4 kts | 86° |
| 2026-05-05 01:30 | 52.31351 | 4.75519 | -2 ft | 4 kts | 86° |
| 2026-05-05 01:30 | 52.31349 | 4.75481 | -2 ft | 4 kts | 72° |
| 2026-05-05 01:30 | 52.31336 | 4.75453 | -2 ft | 4 kts | 10° |
| 2026-05-05 01:31 | 52.31316 | 4.75452 | -2 ft | 1 kts | 356° |
| 2026-05-05 01:31 | 52.31312 | 4.75452 | -2 ft | 0 kts | 356° |
| 2026-05-05 01:34 | 52.31359 | 4.75448 | -2 ft | 10 kts | 357° |
| 2026-05-05 01:35 | 52.31427 | 4.75442 | -2 ft | 10 kts | 357° |
| 2026-05-05 01:35 | 52.31490 | 4.75419 | -2 ft | 10 kts | 323° |
| 2026-05-05 01:35 | 52.31507 | 4.75298 | -2 ft | 11 kts | 268° |
| 2026-05-05 01:35 | 52.31502 | 4.75154 | -2 ft | 19 kts | 266° |
| 2026-05-05 01:36 | 52.31494 | 4.74912 | -2 ft | 22 kts | 267° |
| 2026-05-05 01:36 | 52.31485 | 4.74668 | -2 ft | 21 kts | 267° |
| 2026-05-05 01:36 | 52.31478 | 4.74431 | -2 ft | 21 kts | 267° |
| 2026-05-05 01:36 | 52.31485 | 4.74205 | -2 ft | 20 kts | 300° |
| 2026-05-05 01:37 | 52.31607 | 4.74158 | -2 ft | 19 kts | 4° |
| 2026-05-05 01:37 | 52.31741 | 4.74172 | -2 ft | 22 kts | 3° |
| 2026-05-05 01:37 | 52.31892 | 4.74187 | -2 ft | 22 kts | 4° |
| 2026-05-05 01:37 | 52.32027 | 4.74120 | -2 ft | 21 kts | 299° |
| 2026-05-05 01:38 | 52.32043 | 4.73890 | -2 ft | 20 kts | 274° |
| 2026-05-05 01:38 | 52.32050 | 4.73661 | -2 ft | 20 kts | 273° |
| 2026-05-05 01:38 | 52.32063 | 4.73441 | -2 ft | 19 kts | 284° |
| 2026-05-05 01:38 | 52.32161 | 4.73254 | -2 ft | 24 kts | 320° |
| 2026-05-05 01:39 | 52.32283 | 4.73084 | -2 ft | 23 kts | 319° |
| 2026-05-05 01:39 | 52.32400 | 4.72918 | -2 ft | 22 kts | 319° |
| 2026-05-05 01:39 | 52.32515 | 4.72757 | -2 ft | 21 kts | 319° |
| 2026-05-05 01:39 | 52.32625 | 4.72600 | -2 ft | 21 kts | 318° |
| 2026-05-05 01:40 | 52.32725 | 4.72435 | -2 ft | 20 kts | 311° |
| 2026-05-05 01:40 | 52.32816 | 4.72267 | -2 ft | 19 kts | 311° |
| 2026-05-05 01:40 | 52.32904 | 4.72102 | -2 ft | 19 kts | 311° |
| 2026-05-05 01:40 | 52.32991 | 4.71947 | -2 ft | 18 kts | 314° |
| 2026-05-05 01:41 | 52.33075 | 4.71796 | -2 ft | 18 kts | 308° |
| 2026-05-05 01:41 | 52.33147 | 4.71639 | -2 ft | 17 kts | 292° |
| 2026-05-05 01:41 | 52.33112 | 4.71471 | -2 ft | 16 kts | 220° |
| 2026-05-05 01:41 | 52.33030 | 4.71352 | -2 ft | 15 kts | 221° |
| 2026-05-05 01:42 | 52.32955 | 4.71244 | -2 ft | 14 kts | 220° |
| 2026-05-05 01:42 | 52.32884 | 4.71139 | -2 ft | 13 kts | 233° |
| 2026-05-05 01:42 | 52.32863 | 4.70996 | -3 ft | 13 kts | 274° |
| 2026-05-05 01:42 | 52.32904 | 4.70894 | -3 ft | 13 kts | 7° |
| 2026-05-05 01:43 | 52.32934 | 4.70899 | -4 ft | 0 kts | 4° |
| 2026-05-05 01:43 | 52.32977 | 4.70904 | -4 ft | 27 kts | 4° |
| 2026-05-05 01:43 | 52.33407 | 4.70941 | -3 ft | 98 kts | 3° |
| 2026-05-05 01:43 | 52.34319 | 4.71055 | 55 ft | 156 kts | 9° |
| 2026-05-05 01:44 | 52.35451 | 4.71300 | 701 ft | 172 kts | 6° |
| 2026-05-05 01:44 | 52.36695 | 4.71460 | 1508 ft | 186 kts | 6° |
| 2026-05-05 01:44 | 52.38026 | 4.71599 | 2163 ft | 195 kts | 5° |
| 2026-05-05 01:44 | 52.39414 | 4.71705 | 2596 ft | 210 kts | 2° |
| 2026-05-05 01:45 | 52.40878 | 4.72143 | 3127 ft | 211 kts | 29° |
| 2026-05-05 01:45 | 52.41866 | 4.73819 | 3937 ft | 208 kts | 60° |
| 2026-05-05 01:45 | 52.42226 | 4.76150 | 4430 ft | 219 kts | 88° |
| 2026-05-05 01:45 | 52.41872 | 4.78614 | 4892 ft | 231 kts | 119° |
| 2026-05-05 01:46 | 52.40733 | 4.80519 | 5245 ft | 244 kts | 151° |
| 2026-05-05 01:46 | 52.39107 | 4.81289 | 5806 ft | 243 kts | 179° |
| 2026-05-05 01:46 | 52.37473 | 4.81459 | 6607 ft | 236 kts | 175° |
| 2026-05-05 01:46 | 52.35837 | 4.81857 | 7122 ft | 242 kts | 173° |
| 2026-05-05 01:47 | 52.34154 | 4.82351 | 7621 ft | 248 kts | 171° |
| 2026-05-05 01:47 | 52.32416 | 4.82860 | 7978 ft | 261 kts | 173° |
| 2026-05-05 01:47 | 52.30606 | 4.83378 | 8488 ft | 268 kts | 173° |
| 2026-05-05 01:47 | 52.29331 | 4.83741 | 8664 ft | 282 kts | 172° |
| 2026-05-05 01:48 | 52.27368 | 4.84304 | 9299 ft | 289 kts | 172° |
| 2026-05-05 01:48 | 52.25373 | 4.84846 | 9857 ft | 292 kts | 176° |
| 2026-05-05 01:48 | 52.23390 | 4.84973 | 9940 ft | 288 kts | 184° |
| 2026-05-05 01:48 | 52.21379 | 4.84885 | 9965 ft | 291 kts | 185° |
| 2026-05-05 01:49 | 52.19355 | 4.84773 | 9974 ft | 291 kts | 184° |
| 2026-05-05 01:49 | 52.17333 | 4.84680 | 9969 ft | 290 kts | 183° |
| 2026-05-05 01:49 | 52.15313 | 4.84607 | 9973 ft | 290 kts | 182° |
| 2026-05-05 01:49 | 52.13276 | 4.84546 | 10012 ft | 299 kts | 182° |
| 2026-05-05 01:50 | 52.11123 | 4.84490 | 10193 ft | 320 kts | 182° |
| 2026-05-05 01:50 | 52.08817 | 4.84435 | 10349 ft | 342 kts | 182° |
| 2026-05-05 01:50 | 52.06367 | 4.84384 | 10537 ft | 362 kts | 182° |
| 2026-05-05 01:50 | 52.03811 | 4.84331 | 11005 ft | 371 kts | 182° |
| 2026-05-05 01:51 | 52.01256 | 4.83765 | 11570 ft | 373 kts | 201° |
| 2026-05-05 01:51 | 51.98920 | 4.81942 | 12242 ft | 374 kts | 208° |
| 2026-05-05 01:51 | 51.96588 | 4.80023 | 12865 ft | 378 kts | 208° |
| 2026-05-05 01:51 | 51.94209 | 4.78132 | 13448 ft | 384 kts | 207° |
| 2026-05-05 01:52 | 51.91777 | 4.76226 | 13924 ft | 391 kts | 206° |
| 2026-05-05 01:52 | 51.89319 | 4.74308 | 14535 ft | 393 kts | 206° |
| 2026-05-05 01:52 | 51.86847 | 4.72379 | 15156 ft | 395 kts | 206° |
| 2026-05-05 01:52 | 51.84365 | 4.70442 | 15728 ft | 398 kts | 207° |
| 2026-05-05 01:53 | 51.81863 | 4.68491 | 16331 ft | 400 kts | 206° |
| 2026-05-05 01:53 | 51.79348 | 4.66532 | 16902 ft | 403 kts | 207° |
| 2026-05-05 01:53 | 51.76812 | 4.64558 | 17424 ft | 406 kts | 207° |
| 2026-05-05 01:53 | 51.74256 | 4.62570 | 17989 ft | 409 kts | 207° |
| 2026-05-05 01:54 | 51.71684 | 4.60572 | 18504 ft | 412 kts | 206° |
| 2026-05-05 01:54 | 51.69088 | 4.58561 | 18909 ft | 416 kts | 207° |
| 2026-05-05 01:54 | 51.66471 | 4.56536 | 19374 ft | 419 kts | 207° |
| 2026-05-05 01:54 | 51.63846 | 4.54504 | 19903 ft | 419 kts | 207° |
| 2026-05-05 01:55 | 51.61208 | 4.52463 | 20392 ft | 421 kts | 207° |
| 2026-05-05 01:55 | 51.58561 | 4.50419 | 20853 ft | 423 kts | 207° |
| 2026-05-05 01:55 | 51.55897 | 4.48363 | 21297 ft | 426 kts | 207° |
| 2026-05-05 01:55 | 51.53217 | 4.46296 | 21730 ft | 428 kts | 207° |
| 2026-05-05 01:56 | 51.50525 | 4.44222 | 22170 ft | 431 kts | 207° |
| 2026-05-05 01:56 | 51.47819 | 4.42140 | 22619 ft | 432 kts | 207° |
| 2026-05-05 01:56 | 51.45105 | 4.40055 | 23088 ft | 433 kts | 206° |
| 2026-05-05 01:56 | 51.42379 | 4.37965 | 23493 ft | 435 kts | 206° |
| 2026-05-05 01:57 | 51.39645 | 4.35875 | 23861 ft | 437 kts | 206° |
| 2026-05-05 01:57 | 51.36883 | 4.33804 | 24204 ft | 439 kts | 206° |
| 2026-05-05 01:57 | 51.34111 | 4.31742 | 24545 ft | 440 kts | 206° |
| 2026-05-05 01:57 | 51.31328 | 4.29673 | 24892 ft | 441 kts | 206° |
| 2026-05-05 01:58 | 51.28548 | 4.27576 | 25230 ft | 443 kts | 206° |
| 2026-05-05 01:58 | 51.25762 | 4.25450 | 25552 ft | 444 kts | 206° |
| 2026-05-05 01:58 | 51.22972 | 4.23316 | 25920 ft | 444 kts | 206° |
| 2026-05-05 01:58 | 51.20182 | 4.21192 | 26273 ft | 445 kts | 206° |
| 2026-05-05 01:59 | 51.17385 | 4.19071 | 26572 ft | 446 kts | 206° |
| 2026-05-05 01:59 | 51.14518 | 4.17127 | 26858 ft | 449 kts | 201° |
| 2026-05-05 01:59 | 51.11562 | 4.15486 | 27153 ft | 451 kts | 200° |
| 2026-05-05 01:59 | 51.08581 | 4.13924 | 27439 ft | 452 kts | 200° |
| 2026-05-05 02:00 | 51.05589 | 4.12364 | 27721 ft | 453 kts | 200° |
| 2026-05-05 02:00 | 51.02637 | 4.10801 | 28048 ft | 453 kts | 200° |
| 2026-05-05 02:00 | 50.99661 | 4.09199 | 28505 ft | 450 kts | 201° |
| 2026-05-05 02:00 | 50.96709 | 4.07594 | 28999 ft | 447 kts | 201° |
| 2026-05-05 02:01 | 50.93782 | 4.05998 | 29443 ft | 444 kts | 201° |
| 2026-05-05 02:01 | 50.90861 | 4.04408 | 29812 ft | 443 kts | 201° |
| 2026-05-05 02:01 | 50.87942 | 4.02819 | 30153 ft | 442 kts | 202° |
| 2026-05-05 02:01 | 50.85068 | 4.01107 | 30474 ft | 440 kts | 204° |
| 2026-05-05 02:02 | 50.82233 | 3.99287 | 30778 ft | 439 kts | 205° |
| 2026-05-05 02:02 | 50.79414 | 3.97435 | 31034 ft | 439 kts | 205° |
| 2026-05-05 02:02 | 50.76586 | 3.95579 | 31268 ft | 440 kts | 205° |
| 2026-05-05 02:02 | 50.73759 | 3.93742 | 31585 ft | 438 kts | 205° |
| 2026-05-05 02:03 | 50.70945 | 3.91931 | 31957 ft | 436 kts | 205° |
| 2026-05-05 02:03 | 50.68146 | 3.90141 | 32309 ft | 433 kts | 205° |
| 2026-05-05 02:03 | 50.65355 | 3.88362 | 32604 ft | 432 kts | 205° |
| 2026-05-05 02:03 | 50.62563 | 3.86584 | 32875 ft | 432 kts | 205° |
| 2026-05-05 02:04 | 50.59781 | 3.84815 | 33182 ft | 430 kts | 205° |
| 2026-05-05 02:04 | 50.57012 | 3.83054 | 33508 ft | 428 kts | 205° |
| 2026-05-05 02:04 | 50.54278 | 3.81238 | 33865 ft | 425 kts | 206° |
| 2026-05-05 02:04 | 50.51572 | 3.79380 | 34087 ft | 424 kts | 206° |
| 2026-05-05 02:05 | 50.48867 | 3.77509 | 34242 ft | 425 kts | 206° |
| 2026-05-05 02:05 | 50.46158 | 3.75641 | 34397 ft | 426 kts | 206° |
| 2026-05-05 02:05 | 50.43437 | 3.73777 | 34592 ft | 426 kts | 206° |
| 2026-05-05 02:05 | 50.40722 | 3.71927 | 34789 ft | 425 kts | 205° |
| 2026-05-05 02:06 | 50.38009 | 3.70083 | 34952 ft | 426 kts | 205° |
| 2026-05-05 02:06 | 50.35293 | 3.68241 | 35171 ft | 424 kts | 205° |
| 2026-05-05 02:06 | 50.32599 | 3.66418 | 35551 ft | 419 kts | 205° |
| 2026-05-05 02:06 | 50.29919 | 3.64607 | 35686 ft | 421 kts | 205° |
| 2026-05-05 02:07 | 50.24513 | 3.60957 | 35843 ft | 424 kts | 205° |
| 2026-05-05 02:07 | 50.21806 | 3.59132 | 36039 ft | 423 kts | 204° |
| 2026-05-05 02:07 | 50.19099 | 3.57309 | 36208 ft | 423 kts | 204° |
| 2026-05-05 02:08 | 50.16395 | 3.55490 | 36333 ft | 424 kts | 204° |
| 2026-05-05 02:08 | 50.13721 | 3.53693 | 36456 ft | 425 kts | 204° |
| 2026-05-05 02:08 | 50.10978 | 3.51853 | 36722 ft | 422 kts | 204° |
| 2026-05-05 02:08 | 50.08325 | 3.50075 | 36897 ft | 421 kts | 204° |
| 2026-05-05 02:09 | 50.02920 | 3.46459 | 36920 ft | 423 kts | 204° |
| 2026-05-05 02:09 | 49.97526 | 3.42859 | 36912 ft | 421 kts | 204° |
| 2026-05-05 02:10 | 49.92166 | 3.39292 | 36916 ft | 418 kts | 204° |
| 2026-05-05 02:10 | 49.86828 | 3.35747 | 36914 ft | 416 kts | 204° |
| 2026-05-05 02:11 | 49.81516 | 3.32227 | 36910 ft | 414 kts | 204° |
| 2026-05-05 02:11 | 49.76224 | 3.28729 | 36912 ft | 413 kts | 204° |
| 2026-05-05 02:12 | 49.68294 | 3.23502 | 36910 ft | 413 kts | 204° |
| 2026-05-05 02:13 | 49.62999 | 3.20023 | 36909 ft | 414 kts | 204° |
| 2026-05-05 02:13 | 49.57694 | 3.16545 | 36908 ft | 415 kts | 204° |
| 2026-05-05 02:14 | 49.52375 | 3.13065 | 36923 ft | 416 kts | 203° |
| 2026-05-05 02:14 | 49.47147 | 3.09265 | 36891 ft | 417 kts | 213° |
| 2026-05-05 02:15 | 49.42324 | 3.04309 | 36910 ft | 417 kts | 213° |
| 2026-05-05 02:15 | 49.37491 | 2.99345 | 36907 ft | 418 kts | 213° |
| 2026-05-05 02:16 | 49.32637 | 2.94413 | 36904 ft | 419 kts | 213° |
| 2026-05-05 02:16 | 49.27766 | 2.89492 | 36909 ft | 419 kts | 213° |
| 2026-05-05 02:17 | 49.22887 | 2.84580 | 36902 ft | 420 kts | 212° |
| 2026-05-05 02:17 | 49.18010 | 2.79681 | 36906 ft | 419 kts | 212° |
| 2026-05-05 02:18 | 49.13135 | 2.74794 | 36905 ft | 419 kts | 212° |
| 2026-05-05 02:18 | 49.08267 | 2.69925 | 36912 ft | 418 kts | 212° |
| 2026-05-05 02:19 | 49.03429 | 2.65097 | 36908 ft | 418 kts | 212° |
| 2026-05-05 02:19 | 48.98568 | 2.60257 | 36914 ft | 418 kts | 212° |
| 2026-05-05 02:20 | 48.93700 | 2.55424 | 36914 ft | 418 kts | 212° |
| 2026-05-05 02:20 | 48.88830 | 2.50596 | 36915 ft | 418 kts | 212° |
| 2026-05-05 02:21 | 48.83960 | 2.45778 | 36892 ft | 418 kts | 212° |
| 2026-05-05 02:21 | 48.79079 | 2.40960 | 36885 ft | 419 kts | 212° |
| 2026-05-05 02:22 | 48.74192 | 2.36145 | 36886 ft | 419 kts | 212° |
| 2026-05-05 02:22 | 48.69301 | 2.31340 | 36888 ft | 420 kts | 212° |
| 2026-05-05 02:23 | 48.64397 | 2.26530 | 36884 ft | 420 kts | 212° |
| 2026-05-05 02:23 | 48.59480 | 2.21727 | 36885 ft | 421 kts | 210° |
| 2026-05-05 02:24 | 48.54143 | 2.18210 | 36894 ft | 420 kts | 193° |
| 2026-05-05 02:24 | 48.48424 | 2.16401 | 36890 ft | 421 kts | 192° |
| 2026-05-05 02:25 | 48.42681 | 2.14612 | 36891 ft | 422 kts | 192° |
| 2026-05-05 02:25 | 48.36929 | 2.12769 | 36880 ft | 423 kts | 192° |
| 2026-05-05 02:26 | 48.31164 | 2.10925 | 36878 ft | 424 kts | 191° |
| 2026-05-05 02:26 | 48.25275 | 2.10527 | 36876 ft | 426 kts | 174° |
| 2026-05-05 02:27 | 48.19411 | 2.11880 | 36878 ft | 427 kts | 173° |
| 2026-05-05 02:27 | 48.13525 | 2.12989 | 36872 ft | 426 kts | 180° |
| 2026-05-05 02:28 | 48.07647 | 2.12211 | 36889 ft | 424 kts | 188° |
| 2026-05-05 02:28 | 48.01805 | 2.11009 | 36885 ft | 424 kts | 188° |
| 2026-05-05 02:29 | 47.95960 | 2.09852 | 36881 ft | 424 kts | 188° |
| 2026-05-05 02:29 | 47.90118 | 2.08725 | 36885 ft | 423 kts | 188° |
| 2026-05-05 02:30 | 47.84278 | 2.07606 | 36884 ft | 423 kts | 188° |
| 2026-05-05 02:30 | 47.78446 | 2.06489 | 36871 ft | 422 kts | 188° |
| 2026-05-05 02:31 | 47.72616 | 2.05375 | 36871 ft | 422 kts | 187° |
| 2026-05-05 02:31 | 47.66790 | 2.04265 | 36868 ft | 422 kts | 187° |
| 2026-05-05 02:32 | 47.61070 | 2.02441 | 36855 ft | 422 kts | 201° |
| 2026-05-05 02:32 | 47.55623 | 1.99211 | 36861 ft | 422 kts | 201° |
| 2026-05-05 02:33 | 47.51084 | 1.96527 | 36870 ft | 422 kts | 201° |
| 2026-05-05 02:33 | 47.45611 | 1.93337 | 36867 ft | 423 kts | 201° |
| 2026-05-05 02:34 | 47.40123 | 1.90166 | 36869 ft | 424 kts | 201° |
| 2026-05-05 02:34 | 47.34617 | 1.86993 | 36858 ft | 425 kts | 201° |
| 2026-05-05 02:35 | 47.29099 | 1.83820 | 36857 ft | 426 kts | 201° |
| 2026-05-05 02:35 | 47.23571 | 1.80646 | 36858 ft | 427 kts | 201° |
| 2026-05-05 02:36 | 47.18027 | 1.77483 | 36863 ft | 428 kts | 200° |
| 2026-05-05 02:36 | 47.12467 | 1.74354 | 36862 ft | 428 kts | 200° |
| 2026-05-05 02:37 | 47.06904 | 1.71235 | 36861 ft | 428 kts | 200° |
| 2026-05-05 02:37 | 47.01378 | 1.68140 | 36860 ft | 428 kts | 200° |
| 2026-05-05 02:38 | 46.95822 | 1.65031 | 36863 ft | 427 kts | 200° |
| 2026-05-05 02:38 | 46.90275 | 1.61934 | 36862 ft | 427 kts | 200° |
| 2026-05-05 02:39 | 46.84730 | 1.58845 | 36859 ft | 426 kts | 200° |
| 2026-05-05 02:39 | 46.79199 | 1.55770 | 36861 ft | 425 kts | 200° |
| 2026-05-05 02:40 | 46.73680 | 1.52709 | 36858 ft | 424 kts | 200° |
| 2026-05-05 02:40 | 46.68172 | 1.49661 | 36869 ft | 423 kts | 200° |
| 2026-05-05 02:41 | 46.62680 | 1.46628 | 36876 ft | 422 kts | 200° |
| 2026-05-05 02:41 | 46.57178 | 1.43596 | 36874 ft | 422 kts | 200° |
| 2026-05-05 02:42 | 46.51689 | 1.40578 | 36879 ft | 422 kts | 200° |
| 2026-05-05 02:42 | 46.46197 | 1.37565 | 36875 ft | 422 kts | 200° |
| 2026-05-05 02:43 | 46.40700 | 1.34555 | 36877 ft | 422 kts | 200° |
| 2026-05-05 02:43 | 46.35198 | 1.31550 | 36872 ft | 422 kts | 200° |
| 2026-05-05 02:44 | 46.29737 | 1.28573 | 36886 ft | 423 kts | 200° |
| 2026-05-05 02:44 | 46.24227 | 1.25576 | 36887 ft | 423 kts | 200° |
| 2026-05-05 02:45 | 46.18714 | 1.22583 | 36890 ft | 424 kts | 200° |
| 2026-05-05 02:45 | 46.13192 | 1.19593 | 36902 ft | 424 kts | 200° |
| 2026-05-05 02:46 | 46.07660 | 1.16603 | 36912 ft | 425 kts | 200° |
| 2026-05-05 02:46 | 46.02122 | 1.13616 | 36908 ft | 425 kts | 200° |
| 2026-05-05 02:47 | 45.96580 | 1.10633 | 36915 ft | 426 kts | 200° |
| 2026-05-05 02:47 | 45.91031 | 1.07652 | 36908 ft | 426 kts | 200° |
| 2026-05-05 02:48 | 45.85481 | 1.04677 | 36911 ft | 425 kts | 200° |
| 2026-05-05 02:48 | 45.80190 | 1.00921 | 36914 ft | 426 kts | 214° |
| 2026-05-05 02:49 | 45.75601 | 0.95535 | 36912 ft | 427 kts | 219° |
| 2026-05-05 02:49 | 45.71077 | 0.90045 | 36915 ft | 426 kts | 218° |
| 2026-05-05 02:50 | 45.66542 | 0.84594 | 36921 ft | 426 kts | 218° |
| 2026-05-05 02:50 | 45.62002 | 0.79177 | 36918 ft | 425 kts | 218° |
| 2026-05-05 02:51 | 45.57447 | 0.73763 | 36936 ft | 426 kts | 218° |
| 2026-05-05 02:51 | 45.52890 | 0.68359 | 36938 ft | 426 kts | 218° |
| 2026-05-05 02:52 | 45.48326 | 0.62957 | 36933 ft | 427 kts | 218° |
| 2026-05-05 02:52 | 45.43756 | 0.57560 | 36936 ft | 427 kts | 218° |
| 2026-05-05 02:53 | 45.39181 | 0.52167 | 36941 ft | 427 kts | 218° |
| 2026-05-05 02:53 | 45.34625 | 0.46810 | 36943 ft | 428 kts | 218° |
| 2026-05-05 02:54 | 45.30037 | 0.41426 | 36952 ft | 428 kts | 218° |
| 2026-05-05 02:54 | 45.25442 | 0.36046 | 36956 ft | 429 kts | 218° |
| 2026-05-05 02:55 | 45.20832 | 0.30659 | 36956 ft | 429 kts | 218° |
| 2026-05-05 02:55 | 45.16215 | 0.25276 | 36950 ft | 430 kts | 218° |
| 2026-05-05 02:56 | 45.11591 | 0.19895 | 36957 ft | 430 kts | 218° |
| 2026-05-05 02:56 | 45.06965 | 0.14523 | 36952 ft | 431 kts | 218° |
| 2026-05-05 02:57 | 45.02328 | 0.09152 | 36956 ft | 431 kts | 218° |
| 2026-05-05 02:57 | 44.97689 | 0.03792 | 36949 ft | 430 kts | 219° |
| 2026-05-05 02:58 | 44.93057 | -0.01550 | 36972 ft | 430 kts | 219° |
| 2026-05-05 02:58 | 44.88423 | -0.06886 | 36963 ft | 430 kts | 219° |
| 2026-05-05 02:59 | 44.83807 | -0.12189 | 36951 ft | 431 kts | 219° |
| 2026-05-05 02:59 | 44.79135 | -0.17546 | 36963 ft | 430 kts | 219° |
| 2026-05-05 03:00 | 44.74517 | -0.22829 | 36960 ft | 431 kts | 219° |
| 2026-05-05 03:00 | 44.69866 | -0.28141 | 36965 ft | 431 kts | 219° |
| 2026-05-05 03:01 | 44.65192 | -0.33407 | 36951 ft | 431 kts | 215° |
| 2026-05-05 03:01 | 44.59984 | -0.37538 | 36964 ft | 430 kts | 208° |
| 2026-05-05 03:02 | 44.54666 | -0.41379 | 36971 ft | 430 kts | 208° |
| 2026-05-05 03:02 | 44.49348 | -0.45247 | 36955 ft | 430 kts | 208° |
| 2026-05-05 03:03 | 44.44037 | -0.49130 | 36958 ft | 431 kts | 208° |
| 2026-05-05 03:03 | 44.38735 | -0.53008 | 36971 ft | 430 kts | 208° |
| 2026-05-05 03:04 | 44.33434 | -0.56880 | 36972 ft | 430 kts | 208° |
| 2026-05-05 03:04 | 44.28135 | -0.60741 | 36973 ft | 429 kts | 208° |
| 2026-05-05 03:05 | 44.22840 | -0.64592 | 36975 ft | 429 kts | 208° |
| 2026-05-05 03:05 | 44.17549 | -0.68431 | 36981 ft | 428 kts | 208° |
| 2026-05-05 03:06 | 44.12268 | -0.72255 | 36978 ft | 428 kts | 208° |
| 2026-05-05 03:06 | 44.06989 | -0.76070 | 36986 ft | 427 kts | 208° |
| 2026-05-05 03:07 | 44.01708 | -0.79879 | 36975 ft | 428 kts | 209° |
| 2026-05-05 03:07 | 43.96426 | -0.83681 | 36974 ft | 428 kts | 209° |
| 2026-05-05 03:08 | 43.91143 | -0.87476 | 36975 ft | 428 kts | 209° |
| 2026-05-05 03:08 | 43.85893 | -0.91239 | 36981 ft | 428 kts | 209° |
| 2026-05-05 03:09 | 43.80604 | -0.95024 | 36988 ft | 428 kts | 209° |
| 2026-05-05 03:09 | 43.75318 | -0.98798 | 36992 ft | 428 kts | 209° |
| 2026-05-05 03:10 | 43.69996 | -1.02590 | 36996 ft | 427 kts | 209° |
| 2026-05-05 03:10 | 43.64752 | -1.06320 | 36994 ft | 427 kts | 209° |
| 2026-05-05 03:11 | 43.59469 | -1.10069 | 36990 ft | 426 kts | 209° |
| 2026-05-05 03:11 | 43.54200 | -1.13801 | 36985 ft | 426 kts | 209° |
| 2026-05-05 03:12 | 43.48931 | -1.17527 | 36991 ft | 425 kts | 209° |
| 2026-05-05 03:12 | 43.43667 | -1.21241 | 36994 ft | 425 kts | 209° |
| 2026-05-05 03:13 | 43.38409 | -1.24943 | 36992 ft | 424 kts | 209° |
| 2026-05-05 03:13 | 43.33157 | -1.28635 | 36995 ft | 424 kts | 209° |
| 2026-05-05 03:14 | 43.27909 | -1.32317 | 36996 ft | 423 kts | 209° |
| 2026-05-05 03:14 | 43.22657 | -1.35993 | 36998 ft | 423 kts | 209° |
| 2026-05-05 03:15 | 43.17417 | -1.39655 | 37004 ft | 422 kts | 209° |
| 2026-05-05 03:15 | 43.12191 | -1.43302 | 37004 ft | 422 kts | 209° |
| 2026-05-05 03:16 | 43.06957 | -1.46945 | 37002 ft | 422 kts | 209° |
| 2026-05-05 03:16 | 43.01731 | -1.50581 | 37015 ft | 422 kts | 209° |
| 2026-05-05 03:17 | 42.96507 | -1.54213 | 37011 ft | 422 kts | 210° |
| 2026-05-05 03:17 | 42.91274 | -1.57845 | 37006 ft | 422 kts | 210° |
| 2026-05-05 03:18 | 42.86033 | -1.61475 | 36997 ft | 423 kts | 210° |
| 2026-05-05 03:18 | 42.80782 | -1.65106 | 36993 ft | 423 kts | 210° |
| 2026-05-05 03:19 | 42.72897 | -1.70543 | 36990 ft | 424 kts | 209° |
| 2026-05-05 03:19 | 42.67613 | -1.74108 | 36993 ft | 424 kts | 209° |
| 2026-05-05 03:20 | 42.62317 | -1.77651 | 37000 ft | 424 kts | 209° |
| 2026-05-05 03:20 | 42.57022 | -1.81195 | 36996 ft | 424 kts | 209° |
| 2026-05-05 03:21 | 42.52628 | -1.84136 | 36999 ft | 424 kts | 209° |
| 2026-05-05 03:21 | 42.46485 | -1.88241 | 37009 ft | 423 kts | 209° |
| 2026-05-05 03:22 | 42.42061 | -1.91191 | 37002 ft | 423 kts | 209° |
| 2026-05-05 03:22 | 42.35930 | -1.95278 | 36991 ft | 422 kts | 210° |
| 2026-05-05 03:23 | 42.31512 | -1.98223 | 36989 ft | 422 kts | 210° |
| 2026-05-05 03:23 | 42.26245 | -2.01733 | 37001 ft | 422 kts | 210° |
| 2026-05-05 03:24 | 42.20979 | -2.05228 | 36999 ft | 422 kts | 210° |
| 2026-05-05 03:24 | 42.15744 | -2.08695 | 36991 ft | 422 kts | 210° |
| 2026-05-05 03:25 | 42.10474 | -2.12175 | 37000 ft | 422 kts | 210° |
| 2026-05-05 03:25 | 42.05171 | -2.15672 | 37001 ft | 422 kts | 210° |
| 2026-05-05 03:26 | 41.99932 | -2.19122 | 37013 ft | 421 kts | 210° |
| 2026-05-05 03:26 | 41.94669 | -2.22581 | 36987 ft | 420 kts | 210° |
| 2026-05-05 03:27 | 41.89417 | -2.26026 | 37019 ft | 419 kts | 210° |
| 2026-05-05 03:27 | 41.84178 | -2.29457 | 37024 ft | 419 kts | 210° |
| 2026-05-05 03:28 | 41.78940 | -2.32882 | 37011 ft | 418 kts | 210° |
| 2026-05-05 03:28 | 41.73712 | -2.36293 | 37003 ft | 418 kts | 211° |
| 2026-05-05 03:29 | 41.68496 | -2.39691 | 37010 ft | 417 kts | 211° |
| 2026-05-05 03:29 | 41.63282 | -2.43081 | 37016 ft | 416 kts | 211° |
| 2026-05-05 03:30 | 41.58082 | -2.46457 | 37025 ft | 415 kts | 211° |
| 2026-05-05 03:30 | 41.52880 | -2.49829 | 36987 ft | 415 kts | 211° |
| 2026-05-05 03:31 | 41.47690 | -2.53180 | 37009 ft | 415 kts | 211° |
| 2026-05-05 03:31 | 41.42497 | -2.56519 | 37016 ft | 414 kts | 211° |
| 2026-05-05 03:32 | 41.37310 | -2.59850 | 37022 ft | 414 kts | 211° |
| 2026-05-05 03:32 | 41.31766 | -2.62186 | 36990 ft | 425 kts | 195° |
| 2026-05-05 03:33 | 41.25789 | -2.62532 | 37021 ft | 437 kts | 184° |
| 2026-05-05 03:33 | 41.19722 | -2.61918 | 37004 ft | 437 kts | 183° |
| 2026-05-05 03:34 | 41.13695 | -2.61314 | 37008 ft | 437 kts | 184° |
| 2026-05-05 03:34 | 41.07634 | -2.60760 | 36996 ft | 436 kts | 184° |
| 2026-05-05 03:35 | 41.01587 | -2.60221 | 36995 ft | 436 kts | 184° |
| 2026-05-05 03:35 | 40.95538 | -2.59680 | 36998 ft | 435 kts | 184° |
| 2026-05-05 03:36 | 40.89499 | -2.59140 | 37004 ft | 435 kts | 184° |
| 2026-05-05 03:36 | 40.83467 | -2.58599 | 37001 ft | 434 kts | 184° |
| 2026-05-05 03:37 | 40.77447 | -2.58062 | 36995 ft | 434 kts | 184° |
| 2026-05-05 03:37 | 40.71427 | -2.57528 | 36998 ft | 433 kts | 184° |
| 2026-05-05 03:38 | 40.65410 | -2.56993 | 37007 ft | 433 kts | 184° |
| 2026-05-05 03:38 | 40.59396 | -2.56460 | 36991 ft | 433 kts | 184° |
| 2026-05-05 03:39 | 40.53380 | -2.55928 | 36998 ft | 433 kts | 184° |
| 2026-05-05 03:39 | 40.47364 | -2.55396 | 36996 ft | 433 kts | 184° |
| 2026-05-05 03:40 | 40.41396 | -2.54870 | 36985 ft | 432 kts | 185° |
| 2026-05-05 03:40 | 40.38431 | -2.54943 | 36994 ft | 420 kts | 194° |
| 2026-05-05 03:40 | 40.35567 | -2.55532 | 37004 ft | 414 kts | 200° |
| 2026-05-05 03:41 | 40.30199 | -2.57925 | 36998 ft | 406 kts | 208° |
| 2026-05-05 03:41 | 40.24927 | -2.60624 | 36995 ft | 407 kts | 208° |
| 2026-05-05 03:42 | 40.19632 | -2.63309 | 36986 ft | 408 kts | 208° |
| 2026-05-05 03:42 | 40.14323 | -2.65975 | 36997 ft | 409 kts | 208° |
| 2026-05-05 03:43 | 40.08995 | -2.68638 | 37000 ft | 411 kts | 207° |
| 2026-05-05 03:43 | 40.03643 | -2.71306 | 37003 ft | 412 kts | 207° |
| 2026-05-05 03:44 | 39.98270 | -2.73981 | 36980 ft | 413 kts | 207° |
| 2026-05-05 03:44 | 39.92894 | -2.76653 | 36994 ft | 414 kts | 207° |
| 2026-05-05 03:45 | 39.87502 | -2.79328 | 36997 ft | 415 kts | 207° |
| 2026-05-05 03:45 | 39.82109 | -2.82000 | 37003 ft | 415 kts | 207° |
| 2026-05-05 03:46 | 39.76706 | -2.84671 | 36970 ft | 415 kts | 207° |
| 2026-05-05 03:46 | 39.71309 | -2.87336 | 36994 ft | 415 kts | 207° |
| 2026-05-05 03:47 | 39.65910 | -2.89998 | 37001 ft | 415 kts | 207° |
| 2026-05-05 03:47 | 39.60557 | -2.92633 | 36999 ft | 414 kts | 207° |
| 2026-05-05 03:48 | 39.55171 | -2.95283 | 36999 ft | 414 kts | 207° |
| 2026-05-05 03:48 | 39.49798 | -2.97931 | 37005 ft | 413 kts | 207° |
| 2026-05-05 03:49 | 39.44438 | -3.00569 | 37015 ft | 412 kts | 207° |
| 2026-05-05 03:49 | 39.39086 | -3.03197 | 36997 ft | 411 kts | 207° |
| 2026-05-05 03:50 | 39.33734 | -3.05799 | 37019 ft | 411 kts | 207° |
| 2026-05-05 03:50 | 39.28382 | -3.08392 | 37006 ft | 410 kts | 208° |
| 2026-05-05 03:51 | 39.23047 | -3.10975 | 37014 ft | 410 kts | 208° |
| 2026-05-05 03:51 | 39.17705 | -3.13560 | 37018 ft | 410 kts | 208° |
| 2026-05-05 03:52 | 39.12369 | -3.16139 | 37019 ft | 410 kts | 208° |
| 2026-05-05 03:52 | 39.07024 | -3.18717 | 36991 ft | 410 kts | 208° |
| 2026-05-05 03:53 | 39.01677 | -3.21292 | 37010 ft | 410 kts | 208° |
| 2026-05-05 03:53 | 38.96331 | -3.23865 | 37017 ft | 410 kts | 208° |
| 2026-05-05 03:54 | 38.90985 | -3.26442 | 37020 ft | 410 kts | 208° |
| 2026-05-05 03:54 | 38.85638 | -3.29016 | 37019 ft | 410 kts | 208° |
| 2026-05-05 03:55 | 38.80303 | -3.31579 | 37020 ft | 408 kts | 208° |
| 2026-05-05 03:55 | 38.74983 | -3.34132 | 37026 ft | 408 kts | 208° |
| 2026-05-05 03:56 | 38.69665 | -3.36680 | 37024 ft | 408 kts | 208° |
| 2026-05-05 03:56 | 38.64349 | -3.39223 | 37022 ft | 408 kts | 208° |
| 2026-05-05 03:57 | 38.59071 | -3.41743 | 36999 ft | 407 kts | 208° |
| 2026-05-05 03:57 | 38.53769 | -3.44271 | 37025 ft | 407 kts | 208° |
| 2026-05-05 03:58 | 38.48468 | -3.46795 | 37026 ft | 407 kts | 208° |
| 2026-05-05 03:58 | 38.43160 | -3.49319 | 37030 ft | 407 kts | 208° |
| 2026-05-05 03:59 | 38.37849 | -3.51839 | 37023 ft | 407 kts | 208° |
| 2026-05-05 03:59 | 38.32544 | -3.54353 | 37030 ft | 407 kts | 208° |
| 2026-05-05 04:00 | 38.27231 | -3.56867 | 37027 ft | 408 kts | 208° |
| 2026-05-05 04:00 | 38.21908 | -3.59382 | 37026 ft | 408 kts | 208° |
| 2026-05-05 04:01 | 38.16582 | -3.61895 | 37025 ft | 409 kts | 208° |
| 2026-05-05 04:01 | 38.11363 | -3.64661 | 37011 ft | 405 kts | 211° |
| 2026-05-05 04:02 | 38.06229 | -3.67594 | 37022 ft | 405 kts | 212° |
| 2026-05-05 04:02 | 38.01094 | -3.70525 | 37020 ft | 405 kts | 211° |
| 2026-05-05 04:03 | 37.95953 | -3.73438 | 37026 ft | 405 kts | 211° |
| 2026-05-05 04:03 | 37.90804 | -3.76344 | 37029 ft | 405 kts | 211° |
| 2026-05-05 04:04 | 37.85657 | -3.79241 | 37029 ft | 405 kts | 211° |
| 2026-05-05 04:04 | 37.80505 | -3.82136 | 37029 ft | 405 kts | 211° |
| 2026-05-05 04:05 | 37.75362 | -3.85022 | 37033 ft | 404 kts | 211° |
| 2026-05-05 04:05 | 37.70216 | -3.87907 | 37027 ft | 405 kts | 211° |
| 2026-05-05 04:06 | 37.65089 | -3.90775 | 36996 ft | 406 kts | 211° |
| 2026-05-05 04:06 | 37.59952 | -3.93645 | 37030 ft | 406 kts | 211° |
| 2026-05-05 04:07 | 37.54789 | -3.96524 | 37039 ft | 406 kts | 211° |
| 2026-05-05 04:07 | 37.49616 | -3.99406 | 37033 ft | 406 kts | 211° |
| 2026-05-05 04:08 | 37.44446 | -4.02281 | 37046 ft | 407 kts | 211° |
| 2026-05-05 04:08 | 37.39264 | -4.05159 | 37013 ft | 407 kts | 211° |
| 2026-05-05 04:09 | 37.34080 | -4.08032 | 37029 ft | 408 kts | 211° |
| 2026-05-05 04:09 | 37.28890 | -4.10905 | 37040 ft | 408 kts | 211° |
| 2026-05-05 04:10 | 37.23700 | -4.13774 | 37040 ft | 408 kts | 210° |
| 2026-05-05 04:10 | 37.18506 | -4.16641 | 37050 ft | 408 kts | 211° |
| 2026-05-05 04:11 | 37.13305 | -4.19508 | 37028 ft | 408 kts | 210° |
| 2026-05-05 04:11 | 37.08090 | -4.22378 | 37023 ft | 410 kts | 210° |
| 2026-05-05 04:12 | 37.03741 | -4.24768 | 37015 ft | 411 kts | 210° |
| 2026-05-05 04:12 | 36.98510 | -4.27638 | 37022 ft | 410 kts | 210° |
| 2026-05-05 04:13 | 36.92432 | -4.30968 | 37004 ft | 410 kts | 210° |
| 2026-05-05 04:13 | 36.87212 | -4.33824 | 36988 ft | 408 kts | 210° |
| 2026-05-05 04:14 | 36.82857 | -4.36202 | 36999 ft | 407 kts | 210° |
| 2026-05-05 04:14 | 36.77959 | -4.39602 | 37004 ft | 401 kts | 218° |
| 2026-05-05 04:15 | 36.73270 | -4.43391 | 36993 ft | 402 kts | 218° |
| 2026-05-05 04:15 | 36.68567 | -4.47168 | 36992 ft | 402 kts | 218° |
| 2026-05-05 04:16 | 36.63846 | -4.50923 | 36980 ft | 402 kts | 218° |
| 2026-05-05 04:16 | 36.59125 | -4.54658 | 37000 ft | 402 kts | 218° |
| 2026-05-05 04:17 | 36.54395 | -4.58394 | 36975 ft | 403 kts | 217° |
| 2026-05-05 04:17 | 36.49649 | -4.62137 | 36999 ft | 404 kts | 217° |
| 2026-05-05 04:18 | 36.44922 | -4.65859 | 36992 ft | 406 kts | 217° |
| 2026-05-05 04:18 | 36.40147 | -4.69613 | 36960 ft | 407 kts | 217° |
| 2026-05-05 04:19 | 36.35366 | -4.73367 | 36987 ft | 407 kts | 217° |
| 2026-05-05 04:19 | 36.30575 | -4.77123 | 36996 ft | 408 kts | 217° |
| 2026-05-05 04:20 | 36.25774 | -4.80882 | 36995 ft | 408 kts | 217° |
| 2026-05-05 04:20 | 36.20970 | -4.84638 | 36994 ft | 409 kts | 217° |
| 2026-05-05 04:21 | 36.16163 | -4.88390 | 36998 ft | 408 kts | 217° |
| 2026-05-05 04:21 | 36.11414 | -4.92127 | 37004 ft | 407 kts | 217° |
| 2026-05-05 04:22 | 36.06647 | -4.95922 | 37013 ft | 407 kts | 217° |
| 2026-05-05 04:22 | 36.01880 | -4.99710 | 37005 ft | 407 kts | 217° |
| 2026-05-05 04:23 | 35.97111 | -5.03489 | 37009 ft | 407 kts | 217° |
| 2026-05-05 04:23 | 35.92336 | -5.07266 | 37008 ft | 407 kts | 217° |
| 2026-05-05 04:24 | 35.87563 | -5.11037 | 37007 ft | 407 kts | 217° |
| 2026-05-05 04:25 | 35.80526 | -5.16871 | 37021 ft | 405 kts | 221° |
| 2026-05-05 04:25 | 35.76058 | -5.21012 | 37020 ft | 405 kts | 221° |
| 2026-05-05 04:26 | 35.71532 | -5.25220 | 37023 ft | 405 kts | 221° |
| 2026-05-05 04:26 | 35.67055 | -5.29355 | 37016 ft | 405 kts | 221° |
| 2026-05-05 04:27 | 35.62543 | -5.33504 | 37011 ft | 405 kts | 221° |
| 2026-05-05 04:27 | 35.58028 | -5.37645 | 37016 ft | 405 kts | 221° |
| 2026-05-05 04:28 | 35.53506 | -5.41786 | 37021 ft | 406 kts | 221° |
| 2026-05-05 04:28 | 35.48976 | -5.45928 | 37024 ft | 407 kts | 220° |
| 2026-05-05 04:29 | 35.44437 | -5.50073 | 37045 ft | 407 kts | 221° |
| 2026-05-05 04:29 | 35.39884 | -5.54224 | 37035 ft | 408 kts | 220° |
| 2026-05-05 04:30 | 35.35331 | -5.58369 | 37040 ft | 408 kts | 220° |
| 2026-05-05 04:30 | 35.30772 | -5.62515 | 37055 ft | 408 kts | 220° |
| 2026-05-05 04:31 | 35.26214 | -5.66653 | 37055 ft | 408 kts | 220° |
| 2026-05-05 04:31 | 35.21657 | -5.70785 | 37059 ft | 408 kts | 220° |
| 2026-05-05 04:32 | 35.17094 | -5.74916 | 37070 ft | 408 kts | 220° |
| 2026-05-05 04:32 | 35.12528 | -5.79043 | 37064 ft | 408 kts | 220° |
| 2026-05-05 04:33 | 35.07962 | -5.83165 | 37056 ft | 407 kts | 220° |
| 2026-05-05 04:33 | 35.03403 | -5.87274 | 37061 ft | 407 kts | 220° |
| 2026-05-05 04:34 | 34.98849 | -5.91373 | 37062 ft | 407 kts | 220° |
| 2026-05-05 04:34 | 34.94300 | -5.95463 | 37055 ft | 406 kts | 220° |
| 2026-05-05 04:35 | 34.89752 | -5.99545 | 37058 ft | 406 kts | 220° |
| 2026-05-05 04:35 | 34.85208 | -6.03618 | 37057 ft | 406 kts | 220° |
| 2026-05-05 04:36 | 34.80659 | -6.07690 | 37048 ft | 406 kts | 220° |
| 2026-05-05 04:36 | 34.76115 | -6.11752 | 37049 ft | 405 kts | 220° |
| 2026-05-05 04:37 | 34.71572 | -6.15807 | 37050 ft | 405 kts | 220° |
| 2026-05-05 04:37 | 34.67025 | -6.19860 | 37052 ft | 405 kts | 220° |
| 2026-05-05 04:38 | 34.62476 | -6.23910 | 37053 ft | 405 kts | 220° |
| 2026-05-05 04:38 | 34.57924 | -6.27956 | 37049 ft | 406 kts | 220° |
| 2026-05-05 04:39 | 34.53370 | -6.31998 | 37043 ft | 405 kts | 220° |
| 2026-05-05 04:39 | 34.48817 | -6.36034 | 37051 ft | 405 kts | 220° |
| 2026-05-05 04:40 | 34.44262 | -6.40067 | 37044 ft | 406 kts | 220° |
| 2026-05-05 04:40 | 34.39706 | -6.44094 | 37047 ft | 406 kts | 220° |
| 2026-05-05 04:41 | 34.35144 | -6.48122 | 37060 ft | 406 kts | 220° |
| 2026-05-05 04:41 | 34.30610 | -6.52118 | 37055 ft | 406 kts | 220° |
| 2026-05-05 04:42 | 34.26017 | -6.56162 | 37047 ft | 406 kts | 220° |
| 2026-05-05 04:42 | 34.21451 | -6.60177 | 37049 ft | 406 kts | 220° |
| 2026-05-05 04:43 | 34.16912 | -6.64163 | 37055 ft | 406 kts | 220° |
| 2026-05-05 04:43 | 34.12340 | -6.68172 | 37049 ft | 406 kts | 220° |
| 2026-05-05 04:44 | 34.07769 | -6.72176 | 37047 ft | 406 kts | 220° |
| 2026-05-05 04:44 | 34.03174 | -6.76155 | 37043 ft | 407 kts | 219° |
| 2026-05-05 04:45 | 33.98499 | -6.80001 | 37038 ft | 407 kts | 219° |
| 2026-05-05 04:45 | 33.93815 | -6.83820 | 37053 ft | 406 kts | 219° |
| 2026-05-05 04:46 | 33.89142 | -6.87643 | 37051 ft | 406 kts | 219° |
| 2026-05-05 04:46 | 33.84470 | -6.91471 | 37062 ft | 406 kts | 219° |
| 2026-05-05 04:47 | 33.79803 | -6.95294 | 37070 ft | 406 kts | 219° |
| 2026-05-05 04:47 | 33.75129 | -6.99119 | 37038 ft | 406 kts | 219° |
| 2026-05-05 04:48 | 33.70471 | -7.02924 | 37065 ft | 405 kts | 219° |
| 2026-05-05 04:48 | 33.65812 | -7.06725 | 37076 ft | 404 kts | 219° |
| 2026-05-05 04:49 | 33.61165 | -7.10513 | 37073 ft | 404 kts | 219° |
| 2026-05-05 04:49 | 33.56522 | -7.14291 | 37080 ft | 403 kts | 219° |
| 2026-05-05 04:50 | 33.51876 | -7.18067 | 37074 ft | 403 kts | 219° |
| 2026-05-05 04:50 | 33.47235 | -7.21834 | 37088 ft | 403 kts | 219° |
| 2026-05-05 04:51 | 33.42594 | -7.25597 | 37078 ft | 403 kts | 219° |
| 2026-05-05 04:51 | 33.37952 | -7.29355 | 37080 ft | 403 kts | 219° |
| 2026-05-05 04:52 | 33.33310 | -7.33108 | 37081 ft | 403 kts | 219° |
| 2026-05-05 04:52 | 33.28668 | -7.36856 | 37079 ft | 403 kts | 219° |
| 2026-05-05 04:53 | 33.24055 | -7.40577 | 37086 ft | 403 kts | 219° |
| 2026-05-05 04:53 | 33.19407 | -7.44322 | 37087 ft | 403 kts | 219° |
| 2026-05-05 04:54 | 33.14749 | -7.48001 | 37080 ft | 406 kts | 214° |
| 2026-05-05 04:54 | 33.09304 | -7.50276 | 37078 ft | 420 kts | 198° |
| 2026-05-05 04:55 | 33.03352 | -7.50690 | 36722 ft | 438 kts | 187° |
| 2026-05-05 04:55 | 33.00303 | -7.50631 | 36232 ft | 437 kts | 186° |
| 2026-05-05 04:55 | 32.97268 | -7.50570 | 35659 ft | 436 kts | 186° |
| 2026-05-05 04:55 | 32.94236 | -7.50530 | 35014 ft | 436 kts | 187° |
| 2026-05-05 04:56 | 32.91204 | -7.50511 | 34378 ft | 436 kts | 187° |
| 2026-05-05 04:56 | 32.88163 | -7.50501 | 33674 ft | 437 kts | 187° |
| 2026-05-05 04:56 | 32.85114 | -7.50490 | 32956 ft | 438 kts | 187° |
| 2026-05-05 04:56 | 32.82075 | -7.50462 | 32476 ft | 434 kts | 187° |
| 2026-05-05 04:57 | 32.79065 | -7.50429 | 31987 ft | 431 kts | 186° |
| 2026-05-05 04:57 | 32.76090 | -7.50396 | 31521 ft | 426 kts | 186° |
| 2026-05-05 04:57 | 32.73133 | -7.50366 | 31067 ft | 423 kts | 186° |
| 2026-05-05 04:57 | 32.70203 | -7.50338 | 30609 ft | 419 kts | 186° |
| 2026-05-05 04:58 | 32.67290 | -7.50311 | 30155 ft | 416 kts | 186° |
| 2026-05-05 04:58 | 32.64406 | -7.50289 | 29615 ft | 413 kts | 187° |
| 2026-05-05 04:58 | 32.61552 | -7.50279 | 29154 ft | 408 kts | 187° |
| 2026-05-05 04:58 | 32.58731 | -7.50261 | 28682 ft | 404 kts | 187° |
| 2026-05-05 04:59 | 32.56876 | -7.50247 | 28382 ft | 401 kts | 187° |
| 2026-05-05 04:59 | 32.54100 | -7.50225 | 27912 ft | 397 kts | 187° |
| 2026-05-05 04:59 | 32.51345 | -7.50204 | 27459 ft | 394 kts | 186° |
| 2026-05-05 04:59 | 32.48616 | -7.50184 | 27007 ft | 391 kts | 186° |
| 2026-05-05 05:00 | 32.45904 | -7.50165 | 26560 ft | 388 kts | 186° |
| 2026-05-05 05:00 | 32.43210 | -7.50146 | 26122 ft | 386 kts | 186° |
| 2026-05-05 05:00 | 32.40534 | -7.50127 | 25689 ft | 383 kts | 186° |
| 2026-05-05 05:00 | 32.37875 | -7.50109 | 25237 ft | 381 kts | 186° |
| 2026-05-05 05:01 | 32.35235 | -7.50090 | 24817 ft | 379 kts | 186° |
| 2026-05-05 05:01 | 32.32606 | -7.50072 | 24388 ft | 377 kts | 186° |
| 2026-05-05 05:01 | 32.29984 | -7.50054 | 23941 ft | 376 kts | 186° |
| 2026-05-05 05:01 | 32.27371 | -7.50036 | 23470 ft | 375 kts | 185° |
| 2026-05-05 05:02 | 32.24766 | -7.50017 | 22989 ft | 373 kts | 185° |
| 2026-05-05 05:02 | 32.22179 | -7.49999 | 22535 ft | 371 kts | 185° |
| 2026-05-05 05:02 | 32.19608 | -7.49980 | 22100 ft | 368 kts | 186° |
| 2026-05-05 05:02 | 32.17054 | -7.49962 | 21679 ft | 365 kts | 186° |
| 2026-05-05 05:03 | 32.14520 | -7.49944 | 21252 ft | 363 kts | 186° |
| 2026-05-05 05:03 | 32.12002 | -7.49926 | 20821 ft | 361 kts | 186° |
| 2026-05-05 05:03 | 32.09539 | -7.50161 | 20387 ft | 349 kts | 201° |
| 2026-05-05 05:03 | 32.07365 | -7.51273 | 20010 ft | 336 kts | 217° |
| 2026-05-05 05:04 | 32.05596 | -7.53005 | 19602 ft | 327 kts | 230° |
| 2026-05-05 05:04 | 32.04063 | -7.54973 | 19205 ft | 325 kts | 232° |
| 2026-05-05 05:04 | 32.02564 | -7.56962 | 18793 ft | 324 kts | 232° |
| 2026-05-05 05:04 | 32.01088 | -7.58926 | 18388 ft | 324 kts | 232° |
| 2026-05-05 05:05 | 31.99591 | -7.60905 | 17944 ft | 323 kts | 232° |
| 2026-05-05 05:05 | 31.98094 | -7.62870 | 17516 ft | 322 kts | 232° |
| 2026-05-05 05:05 | 31.96600 | -7.64820 | 17222 ft | 317 kts | 232° |
| 2026-05-05 05:05 | 31.95145 | -7.66709 | 17091 ft | 307 kts | 232° |
| 2026-05-05 05:06 | 31.93721 | -7.68559 | 16826 ft | 305 kts | 232° |
| 2026-05-05 05:06 | 31.92260 | -7.70457 | 16602 ft | 323 kts | 231° |
| 2026-05-05 05:06 | 31.90725 | -7.72451 | 16366 ft | 333 kts | 231° |
| 2026-05-05 05:06 | 31.89156 | -7.74482 | 16152 ft | 335 kts | 231° |
| 2026-05-05 05:07 | 31.87599 | -7.76492 | 16090 ft | 331 kts | 231° |
| 2026-05-05 05:07 | 31.86049 | -7.78491 | 16080 ft | 331 kts | 231° |
| 2026-05-05 05:07 | 31.84727 | -7.80677 | 16061 ft | 327 kts | 246° |
| 2026-05-05 05:07 | 31.83957 | -7.83180 | 15886 ft | 326 kts | 258° |
| 2026-05-05 05:08 | 31.83712 | -7.85811 | 15587 ft | 323 kts | 269° |
| 2026-05-05 05:08 | 31.83697 | -7.88448 | 15285 ft | 321 kts | 270° |
| 2026-05-05 05:08 | 31.83713 | -7.91069 | 14990 ft | 321 kts | 270° |
| 2026-05-05 05:08 | 31.83731 | -7.93692 | 14690 ft | 320 kts | 270° |
| 2026-05-05 05:09 | 31.83743 | -7.96309 | 14394 ft | 320 kts | 270° |
| 2026-05-05 05:09 | 31.83748 | -7.98926 | 14105 ft | 320 kts | 270° |
| 2026-05-05 05:09 | 31.83748 | -8.01539 | 13806 ft | 319 kts | 270° |
| 2026-05-05 05:09 | 31.83745 | -8.04145 | 13475 ft | 319 kts | 270° |
| 2026-05-05 05:10 | 31.83739 | -8.06752 | 13170 ft | 318 kts | 270° |
| 2026-05-05 05:10 | 31.83731 | -8.09347 | 12867 ft | 317 kts | 270° |
| 2026-05-05 05:10 | 31.83723 | -8.11932 | 12568 ft | 316 kts | 269° |
| 2026-05-05 05:10 | 31.83714 | -8.14513 | 12279 ft | 315 kts | 269° |
| 2026-05-05 05:11 | 31.83704 | -8.17085 | 11987 ft | 314 kts | 269° |
| 2026-05-05 05:11 | 31.83693 | -8.19655 | 11694 ft | 314 kts | 269° |
| 2026-05-05 05:11 | 31.83682 | -8.22217 | 11404 ft | 313 kts | 269° |
| 2026-05-05 05:11 | 31.83671 | -8.24772 | 11111 ft | 310 kts | 269° |
| 2026-05-05 05:12 | 31.83660 | -8.27289 | 10822 ft | 305 kts | 269° |
| 2026-05-05 05:12 | 31.83648 | -8.29764 | 10547 ft | 300 kts | 270° |
| 2026-05-05 05:12 | 31.83635 | -8.32203 | 10263 ft | 296 kts | 269° |
| 2026-05-05 05:12 | 31.83622 | -8.34609 | 10012 ft | 292 kts | 270° |
| 2026-05-05 05:13 | 31.83477 | -8.36922 | 10002 ft | 279 kts | 255° |
| 2026-05-05 05:13 | 31.82625 | -8.38921 | 9819 ft | 274 kts | 234° |
| 2026-05-05 05:13 | 31.81278 | -8.40481 | 9366 ft | 274 kts | 216° |
| 2026-05-05 05:13 | 31.79585 | -8.41509 | 8890 ft | 274 kts | 206° |
| 2026-05-05 05:14 | 31.77839 | -8.42396 | 8401 ft | 273 kts | 205° |
| 2026-05-05 05:14 | 31.76096 | -8.43269 | 7938 ft | 272 kts | 205° |
| 2026-05-05 05:14 | 31.74366 | -8.44146 | 7469 ft | 271 kts | 204° |
| 2026-05-05 05:14 | 31.72641 | -8.45027 | 7022 ft | 270 kts | 204° |
| 2026-05-05 05:15 | 31.70923 | -8.45909 | 6575 ft | 269 kts | 204° |
| 2026-05-05 05:15 | 31.69214 | -8.46785 | 6164 ft | 266 kts | 202° |
| 2026-05-05 05:15 | 31.67416 | -8.47194 | 6074 ft | 267 kts | 174° |
| 2026-05-05 05:15 | 31.65680 | -8.46518 | 6059 ft | 264 kts | 146° |
| 2026-05-05 05:16 | 31.64427 | -8.44979 | 6064 ft | 263 kts | 119° |
| 2026-05-05 05:16 | 31.63828 | -8.42968 | 6064 ft | 263 kts | 99° |
| 2026-05-05 05:16 | 31.63615 | -8.40835 | 6056 ft | 263 kts | 95° |
| 2026-05-05 05:16 | 31.63480 | -8.38729 | 6029 ft | 263 kts | 94° |
| 2026-05-05 05:17 | 31.63348 | -8.36576 | 5767 ft | 265 kts | 94° |
| 2026-05-05 05:17 | 31.63207 | -8.34416 | 5466 ft | 265 kts | 94° |
| 2026-05-05 05:17 | 31.63058 | -8.32279 | 5160 ft | 259 kts | 95° |
| 2026-05-05 05:17 | 31.62920 | -8.30204 | 4903 ft | 250 kts | 92° |
| 2026-05-05 05:18 | 31.62836 | -8.28211 | 4679 ft | 240 kts | 94° |
| 2026-05-05 05:18 | 31.62699 | -8.26279 | 4468 ft | 236 kts | 95° |
| 2026-05-05 05:18 | 31.62532 | -8.24373 | 4225 ft | 234 kts | 96° |
| 2026-05-05 05:18 | 31.62362 | -8.22495 | 3794 ft | 228 kts | 96° |
| 2026-05-05 05:19 | 31.62198 | -8.20670 | 3375 ft | 221 kts | 96° |
| 2026-05-05 05:19 | 31.62042 | -8.18928 | 3161 ft | 204 kts | 96° |
| 2026-05-05 05:19 | 31.61903 | -8.17361 | 3120 ft | 182 kts | 96° |
| 2026-05-05 05:19 | 31.61780 | -8.15972 | 3141 ft | 164 kts | 96° |
| 2026-05-05 05:20 | 31.61662 | -8.14645 | 3075 ft | 163 kts | 96° |
| 2026-05-05 05:20 | 31.61542 | -8.13321 | 2879 ft | 164 kts | 95° |
| 2026-05-05 05:20 | 31.61432 | -8.11975 | 2674 ft | 167 kts | 95° |
| 2026-05-05 05:20 | 31.61323 | -8.10608 | 2427 ft | 169 kts | 96° |
| 2026-05-05 05:21 | 31.61188 | -8.09240 | 2138 ft | 168 kts | 96° |
| 2026-05-05 05:21 | 31.61068 | -8.07886 | 1941 ft | 165 kts | 95° |
| 2026-05-05 05:21 | 31.60955 | -8.06569 | 1732 ft | 160 kts | 96° |
| 2026-05-05 05:21 | 31.60830 | -8.05282 | 1590 ft | 154 kts | 96° |
| 2026-05-05 05:22 | 31.60732 | -8.04113 | 1534 ft | 127 kts | 95° |
| 2026-05-05 05:22 | 31.60661 | -8.03301 | 1543 ft | 74 kts | 96° |
| 2026-05-05 05:22 | 31.60620 | -8.02836 | 1547 ft | 43 kts | 96° |
| 2026-05-05 05:22 | 31.60595 | -8.02658 | 1539 ft | 11 kts | 129° |
| 2026-05-05 05:23 | 31.60524 | -8.02637 | 1548 ft | 11 kts | 183° |
| 2026-05-05 05:23 | 31.60464 | -8.02644 | 1548 ft | 7 kts | 186° |
| 2026-05-05 05:23 | 31.60431 | -8.02615 | 1545 ft | 0 kts | 107° |
| 2026-05-05 05:24 | 31.60430 | -8.02614 | 1545 ft | 1 kts | 107° |
| 2026-05-05 05:24 | 31.60409 | -8.02588 | 1542 ft | 8 kts | 158° |
| 2026-05-05 05:25 | 31.60348 | -8.02587 | 1544 ft | 6 kts | 185° |
| 2026-05-05 05:25 | 31.60343 | -8.02587 | 1543 ft | 4 kts | 186° |
| 2026-05-05 05:25 | 31.60317 | -8.02591 | 1544 ft | 2 kts | 186° |
| 2026-05-05 05:25 | 31.60312 | -8.02591 | 1545 ft | 0 kts | 186° |
| 2026-05-05 05:30 | 31.61853 | -8.16795 | 3112 ft | 174 kts | 96° |
| 2026-05-05 05:30 | 31.61734 | -8.15458 | 3118 ft | 158 kts | 96° |
| 2026-05-05 05:31 | 31.61643 | -8.14432 | 2620 ft | 166 kts | 96° |
| 2026-05-05 05:31 | 31.61562 | -8.13524 | 1739 ft | 197 kts | 96° |
| 2026-05-05 05:31 | 31.61441 | -8.12083 | 2030 ft | 134 kts | 95° |
| 2026-05-05 05:32 | 31.61371 | -8.11175 | 1931 ft | 111 kts | 96° |
| 2026-05-05 05:32 | 31.61374 | -8.10633 | 1450 ft | 0 kts | 284° |
| 2026-05-05 05:32 | 31.61712 | -8.15214 | 3125 ft | 163 kts | 96° |
| 2026-05-05 05:32 | 31.61592 | -8.13892 | 2968 ft | 163 kts | 96° |
| 2026-05-05 05:33 | 31.61479 | -8.12555 | 2756 ft | 166 kts | 95° |
| 2026-05-05 05:33 | 31.61373 | -8.11195 | 2551 ft | 168 kts | 95° |
| 2026-05-05 05:33 | 31.61246 | -8.09827 | 2257 ft | 169 kts | 96° |
| 2026-05-05 05:33 | 31.61116 | -8.08464 | 2022 ft | 167 kts | 95° |
| 2026-05-05 05:34 | 31.61004 | -8.07130 | 1834 ft | 161 kts | 96° |
| 2026-05-05 05:34 | 31.60883 | -8.05829 | 1645 ft | 159 kts | 96° |
| 2026-05-05 05:34 | 31.60764 | -8.04591 | 1533 ft | 145 kts | 94° |
| 2026-05-05 05:34 | 31.60687 | -8.03587 | 1532 ft | 99 kts | 96° |
| 2026-05-05 05:35 | 31.60635 | -8.02998 | 1545 ft | 55 kts | 96° |
| 2026-05-05 05:35 | 31.60599 | -8.02596 | 1544 ft | 44 kts | 96° |
| 2026-05-05 05:35 | 31.60569 | -8.02275 | 1539 ft | 35 kts | 96° |
| 2026-05-05 05:35 | 31.60545 | -8.02028 | 1548 ft | 28 kts | 96° |
| 2026-05-05 05:36 | 31.60527 | -8.01841 | 1549 ft | 16 kts | 97° |
| 2026-05-05 05:36 | 31.61318 | -8.10555 | 2415 ft | 169 kts | 96° |
| 2026-05-05 05:36 | 31.61183 | -8.09187 | 2132 ft | 168 kts | 96° |
| 2026-05-05 05:36 | 31.61064 | -8.07833 | 1935 ft | 165 kts | 95° |
| 2026-05-05 05:37 | 31.60950 | -8.06520 | 1726 ft | 160 kts | 96° |
| 2026-05-05 05:37 | 31.60826 | -8.05234 | 1583 ft | 154 kts | 96° |
| 2026-05-05 05:37 | 31.60729 | -8.04075 | 1536 ft | 125 kts | 95° |
| 2026-05-05 05:37 | 31.60659 | -8.03279 | 1544 ft | 73 kts | 96° |
| 2026-05-05 05:38 | 31.60619 | -8.02822 | 1547 ft | 43 kts | 96° |
| 2026-05-05 05:38 | 31.60593 | -8.02655 | 1540 ft | 11 kts | 133° |
| 2026-05-05 05:38 | 31.60547 | -8.02636 | 1548 ft | 11 kts | 180° |
| 2026-05-05 05:38 | 31.60501 | -8.02637 | 1539 ft | 1 kts | 181° |
| 2026-05-05 05:39 | 31.61442 | -8.12101 | 2692 ft | 2 kts | 95° |
| 2026-05-05 05:39 | 31.61330 | -8.10682 | 2449 ft | 168 kts | 96° |
| 2026-05-05 05:39 | 31.61195 | -8.09312 | 2154 ft | 168 kts | 96° |
| 2026-05-05 05:39 | 31.61074 | -8.07957 | 1955 ft | 165 kts | 95° |
| 2026-05-05 05:40 | 31.60962 | -8.06639 | 1746 ft | 160 kts | 96° |
| 2026-05-05 05:40 | 31.60837 | -8.05350 | 1603 ft | 155 kts | 96° |
| 2026-05-05 05:40 | 31.60736 | -8.04172 | 1537 ft | 129 kts | 95° |
| 2026-05-05 05:40 | 31.60665 | -8.03341 | 1539 ft | 72 kts | 96° |
| 2026-05-05 05:41 | 31.60629 | -8.02954 | 1540 ft | 62 kts | 96° |